sensor_id;sensor_type;location;lat;lon;timestamp;P1;durP1;ratioP1;P2;durP2;ratioP2
24163;SDS011;12319;49.204;8.116;2023-12-29T00:00:30;5.63;;;2.87;;
24163;SDS011;12319;49.204;8.116;2023-12-29T00:02:56;6.40;;;2.67;;
24163;SDS011;12319;49.204;8.116;2023-12-29T00:05:21;4.75;;;2.63;;
24163;SDS011;12319;49.204;8.116;2023-12-29T00:07:47;5.50;;;2.43;;
24163;SDS011;12319;49.204;8.116;2023-12-29T00:10:12;4.83;;;2.50;;
24163;SDS011;12319;49.204;8.116;2023-12-29T00:12:38;6.13;;;2.97;;
24163;SDS011;12319;49.204;8.116;2023-12-29T00:15:03;4.50;;;2.47;;
24163;SDS011;12319;49.204;8.116;2023-12-29T00:17:29;6.30;;;3.20;;
24163;SDS011;12319;49.204;8.116;2023-12-29T00:19:55;6.67;;;3.70;;
24163;SDS011;12319;49.204;8.116;2023-12-29T00:22:20;6.90;;;3.50;;
24163;SDS011;12319;49.204;8.116;2023-12-29T00:24:46;6.38;;;3.40;;
24163;SDS011;12319;49.204;8.116;2023-12-29T00:27:11;6.30;;;3.70;;
24163;SDS011;12319;49.204;8.116;2023-12-29T00:29:38;8.35;;;4.07;;
24163;SDS011;12319;49.204;8.116;2023-12-29T00:32:04;6.15;;;3.38;;
24163;SDS011;12319;49.204;8.116;2023-12-29T00:34:30;9.17;;;3.00;;
24163;SDS011;12319;49.204;8.116;2023-12-29T00:36:55;5.80;;;3.53;;
24163;SDS011;12319;49.204;8.116;2023-12-29T00:39:22;6.05;;;3.50;;
24163;SDS011;12319;49.204;8.116;2023-12-29T00:41:55;6.35;;;3.53;;
24163;SDS011;12319;49.204;8.116;2023-12-29T00:44:22;7.45;;;3.75;;
24163;SDS011;12319;49.204;8.116;2023-12-29T00:46:48;7.50;;;3.20;;
24163;SDS011;12319;49.204;8.116;2023-12-29T00:49:14;6.87;;;3.83;;
24163;SDS011;12319;49.204;8.116;2023-12-29T00:51:40;6.32;;;3.22;;
24163;SDS011;12319;49.204;8.116;2023-12-29T00:54:08;5.60;;;3.05;;
24163;SDS011;12319;49.204;8.116;2023-12-29T00:56:33;8.30;;;3.90;;
24163;SDS011;12319;49.204;8.116;2023-12-29T00:58:59;7.47;;;3.10;;
24163;SDS011;12319;49.204;8.116;2023-12-29T01:01:25;6.15;;;3.67;;
24163;SDS011;12319;49.204;8.116;2023-12-29T01:03:50;7.03;;;3.70;;
24163;SDS011;12319;49.204;8.116;2023-12-29T01:06:19;6.65;;;3.17;;
24163;SDS011;12319;49.204;8.116;2023-12-29T01:08:45;7.20;;;3.50;;
24163;SDS011;12319;49.204;8.116;2023-12-29T01:11:10;5.83;;;3.50;;
24163;SDS011;12319;49.204;8.116;2023-12-29T01:13:36;5.88;;;3.15;;
24163;SDS011;12319;49.204;8.116;2023-12-29T01:16:01;7.57;;;3.60;;
24163;SDS011;12319;49.204;8.116;2023-12-29T01:18:27;6.90;;;3.17;;
24163;SDS011;12319;49.204;8.116;2023-12-29T01:20:53;5.70;;;2.93;;
24163;SDS011;12319;49.204;8.116;2023-12-29T01:23:19;6.82;;;3.97;;
24163;SDS011;12319;49.204;8.116;2023-12-29T01:25:44;5.45;;;2.92;;
24163;SDS011;12319;49.204;8.116;2023-12-29T01:28:10;4.97;;;2.90;;
24163;SDS011;12319;49.204;8.116;2023-12-29T01:30:36;7.30;;;4.10;;
24163;SDS011;12319;49.204;8.116;2023-12-29T01:33:01;6.53;;;3.20;;
24163;SDS011;12319;49.204;8.116;2023-12-29T01:35:27;8.70;;;3.83;;
24163;SDS011;12319;49.204;8.116;2023-12-29T01:37:52;6.00;;;3.50;;
24163;SDS011;12319;49.204;8.116;2023-12-29T01:40:20;7.57;;;3.58;;
24163;SDS011;12319;49.204;8.116;2023-12-29T01:42:45;6.30;;;3.47;;
24163;SDS011;12319;49.204;8.116;2023-12-29T01:45:17;6.53;;;3.40;;
24163;SDS011;12319;49.204;8.116;2023-12-29T01:47:47;6.00;;;3.58;;
24163;SDS011;12319;49.204;8.116;2023-12-29T01:50:13;6.20;;;3.05;;
24163;SDS011;12319;49.204;8.116;2023-12-29T01:52:39;5.83;;;3.10;;
24163;SDS011;12319;49.204;8.116;2023-12-29T01:55:07;5.68;;;3.30;;
24163;SDS011;12319;49.204;8.116;2023-12-29T01:57:35;5.55;;;2.90;;
24163;SDS011;12319;49.204;8.116;2023-12-29T02:00:01;6.15;;;3.40;;
24163;SDS011;12319;49.204;8.116;2023-12-29T02:02:27;7.67;;;3.10;;
24163;SDS011;12319;49.204;8.116;2023-12-29T02:04:53;6.22;;;3.30;;
24163;SDS011;12319;49.204;8.116;2023-12-29T02:07:19;6.50;;;3.70;;
24163;SDS011;12319;49.204;8.116;2023-12-29T02:09:45;7.40;;;3.40;;
24163;SDS011;12319;49.204;8.116;2023-12-29T02:12:11;6.90;;;3.20;;
24163;SDS011;12319;49.204;8.116;2023-12-29T02:14:37;5.40;;;2.87;;
24163;SDS011;12319;49.204;8.116;2023-12-29T02:19:36;6.90;;;3.20;;
24163;SDS011;12319;49.204;8.116;2023-12-29T02:22:06;5.63;;;2.88;;
24163;SDS011;12319;49.204;8.116;2023-12-29T02:24:33;6.72;;;2.90;;
24163;SDS011;12319;49.204;8.116;2023-12-29T02:29:33;5.38;;;2.85;;
24163;SDS011;12319;49.204;8.116;2023-12-29T02:32:01;6.63;;;3.13;;
24163;SDS011;12319;49.204;8.116;2023-12-29T02:34:29;6.90;;;2.92;;
24163;SDS011;12319;49.204;8.116;2023-12-29T02:36:57;5.20;;;2.60;;
24163;SDS011;12319;49.204;8.116;2023-12-29T02:39:23;5.72;;;2.60;;
24163;SDS011;12319;49.204;8.116;2023-12-29T02:41:49;6.63;;;3.10;;
24163;SDS011;12319;49.204;8.116;2023-12-29T02:44:14;6.38;;;3.08;;
24163;SDS011;12319;49.204;8.116;2023-12-29T02:46:40;6.00;;;3.20;;
24163;SDS011;12319;49.204;8.116;2023-12-29T02:49:06;5.60;;;3.00;;
24163;SDS011;12319;49.204;8.116;2023-12-29T02:51:36;5.70;;;2.75;;
24163;SDS011;12319;49.204;8.116;2023-12-29T02:54:01;5.50;;;2.50;;
24163;SDS011;12319;49.204;8.116;2023-12-29T02:56:27;6.25;;;2.80;;
24163;SDS011;12319;49.204;8.116;2023-12-29T02:58:53;6.27;;;3.00;;
24163;SDS011;12319;49.204;8.116;2023-12-29T03:01:18;5.20;;;2.58;;
24163;SDS011;12319;49.204;8.116;2023-12-29T03:03:44;5.77;;;3.13;;
24163;SDS011;12319;49.204;8.116;2023-12-29T03:06:09;5.90;;;2.90;;
24163;SDS011;12319;49.204;8.116;2023-12-29T03:08:35;6.22;;;3.00;;
24163;SDS011;12319;49.204;8.116;2023-12-29T03:11:00;5.23;;;2.83;;
24163;SDS011;12319;49.204;8.116;2023-12-29T03:13:26;4.40;;;2.40;;
24163;SDS011;12319;49.204;8.116;2023-12-29T03:15:51;4.93;;;2.60;;
24163;SDS011;12319;49.204;8.116;2023-12-29T03:18:17;5.45;;;2.53;;
24163;SDS011;12319;49.204;8.116;2023-12-29T03:20:42;4.63;;;2.47;;
24163;SDS011;12319;49.204;8.116;2023-12-29T03:23:08;5.32;;;2.60;;
24163;SDS011;12319;49.204;8.116;2023-12-29T03:25:34;5.07;;;2.72;;
24163;SDS011;12319;49.204;8.116;2023-12-29T03:27:59;5.00;;;2.73;;
24163;SDS011;12319;49.204;8.116;2023-12-29T03:30:25;4.30;;;2.50;;
24163;SDS011;12319;49.204;8.116;2023-12-29T03:32:51;4.67;;;2.33;;
24163;SDS011;12319;49.204;8.116;2023-12-29T03:35:17;5.25;;;2.45;;
24163;SDS011;12319;49.204;8.116;2023-12-29T03:37:42;4.97;;;2.43;;
24163;SDS011;12319;49.204;8.116;2023-12-29T03:40:08;4.60;;;2.40;;
24163;SDS011;12319;49.204;8.116;2023-12-29T03:42:34;5.93;;;2.63;;
24163;SDS011;12319;49.204;8.116;2023-12-29T03:44:59;4.97;;;2.58;;
24163;SDS011;12319;49.204;8.116;2023-12-29T03:47:25;5.97;;;3.15;;
24163;SDS011;12319;49.204;8.116;2023-12-29T03:49:50;5.77;;;3.00;;
24163;SDS011;12319;49.204;8.116;2023-12-29T03:52:16;5.00;;;2.80;;
24163;SDS011;12319;49.204;8.116;2023-12-29T03:54:41;4.85;;;2.47;;
24163;SDS011;12319;49.204;8.116;2023-12-29T03:57:07;4.40;;;2.23;;
24163;SDS011;12319;49.204;8.116;2023-12-29T03:59:35;4.67;;;2.40;;
24163;SDS011;12319;49.204;8.116;2023-12-29T04:02:02;5.60;;;2.63;;
24163;SDS011;12319;49.204;8.116;2023-12-29T04:04:28;5.05;;;2.58;;
24163;SDS011;12319;49.204;8.116;2023-12-29T04:06:53;4.30;;;2.37;;
24163;SDS011;12319;49.204;8.116;2023-12-29T04:09:19;4.87;;;2.57;;
24163;SDS011;12319;49.204;8.116;2023-12-29T04:11:45;5.70;;;2.92;;
24163;SDS011;12319;49.204;8.116;2023-12-29T04:14:11;5.73;;;2.43;;
24163;SDS011;12319;49.204;8.116;2023-12-29T04:16:37;5.00;;;2.50;;
24163;SDS011;12319;49.204;8.116;2023-12-29T04:19:03;4.43;;;2.40;;
24163;SDS011;12319;49.204;8.116;2023-12-29T04:21:29;4.67;;;2.30;;
24163;SDS011;12319;49.204;8.116;2023-12-29T04:23:56;4.97;;;2.30;;
24163;SDS011;12319;49.204;8.116;2023-12-29T04:26:21;3.90;;;2.15;;
24163;SDS011;12319;49.204;8.116;2023-12-29T04:28:47;5.43;;;2.47;;
24163;SDS011;12319;49.204;8.116;2023-12-29T04:31:12;4.40;;;2.00;;
24163;SDS011;12319;49.204;8.116;2023-12-29T04:33:38;3.33;;;1.80;;
24163;SDS011;12319;49.204;8.116;2023-12-29T04:36:03;4.60;;;2.27;;
24163;SDS011;12319;49.204;8.116;2023-12-29T04:38:29;4.88;;;2.60;;
24163;SDS011;12319;49.204;8.116;2023-12-29T04:40:54;4.17;;;2.07;;
24163;SDS011;12319;49.204;8.116;2023-12-29T04:43:20;4.70;;;2.72;;
24163;SDS011;12319;49.204;8.116;2023-12-29T04:45:45;4.10;;;2.20;;
24163;SDS011;12319;49.204;8.116;2023-12-29T04:48:11;4.33;;;2.30;;
24163;SDS011;12319;49.204;8.116;2023-12-29T04:50:37;3.88;;;2.17;;
24163;SDS011;12319;49.204;8.116;2023-12-29T04:53:02;4.73;;;2.70;;
24163;SDS011;12319;49.204;8.116;2023-12-29T04:55:28;5.15;;;2.70;;
24163;SDS011;12319;49.204;8.116;2023-12-29T04:57:54;5.43;;;2.40;;
24163;SDS011;12319;49.204;8.116;2023-12-29T05:00:19;5.00;;;2.30;;
24163;SDS011;12319;49.204;8.116;2023-12-29T05:02:45;4.50;;;2.40;;
24163;SDS011;12319;49.204;8.116;2023-12-29T05:05:10;3.70;;;1.90;;
24163;SDS011;12319;49.204;8.116;2023-12-29T05:07:36;3.77;;;1.83;;
24163;SDS011;12319;49.204;8.116;2023-12-29T05:10:01;3.75;;;2.00;;
24163;SDS011;12319;49.204;8.116;2023-12-29T05:12:27;4.18;;;2.10;;
24163;SDS011;12319;49.204;8.116;2023-12-29T05:14:52;5.13;;;1.93;;
24163;SDS011;12319;49.204;8.116;2023-12-29T05:17:18;3.58;;;1.80;;
24163;SDS011;12319;49.204;8.116;2023-12-29T05:19:43;3.40;;;1.90;;
24163;SDS011;12319;49.204;8.116;2023-12-29T05:22:09;4.90;;;2.50;;
24163;SDS011;12319;49.204;8.116;2023-12-29T05:24:36;3.90;;;2.13;;
24163;SDS011;12319;49.204;8.116;2023-12-29T05:27:02;4.70;;;1.80;;
24163;SDS011;12319;49.204;8.116;2023-12-29T05:29:28;3.65;;;1.85;;
24163;SDS011;12319;49.204;8.116;2023-12-29T05:31:53;3.87;;;2.00;;
24163;SDS011;12319;49.204;8.116;2023-12-29T05:34:19;4.20;;;2.10;;
24163;SDS011;12319;49.204;8.116;2023-12-29T05:36:44;4.38;;;2.10;;
24163;SDS011;12319;49.204;8.116;2023-12-29T05:39:10;3.93;;;2.00;;
24163;SDS011;12319;49.204;8.116;2023-12-29T05:41:35;3.33;;;1.88;;
24163;SDS011;12319;49.204;8.116;2023-12-29T05:44:01;4.10;;;2.20;;
24163;SDS011;12319;49.204;8.116;2023-12-29T05:46:26;3.90;;;2.10;;
24163;SDS011;12319;49.204;8.116;2023-12-29T05:48:52;5.17;;;2.00;;
24163;SDS011;12319;49.204;8.116;2023-12-29T05:51:18;3.72;;;1.92;;
24163;SDS011;12319;49.204;8.116;2023-12-29T05:53:43;3.80;;;1.90;;
24163;SDS011;12319;49.204;8.116;2023-12-29T05:56:11;4.00;;;2.20;;
24163;SDS011;12319;49.204;8.116;2023-12-29T05:58:37;4.20;;;2.10;;
24163;SDS011;12319;49.204;8.116;2023-12-29T06:01:05;3.83;;;1.90;;
24163;SDS011;12319;49.204;8.116;2023-12-29T06:03:30;4.22;;;2.10;;
24163;SDS011;12319;49.204;8.116;2023-12-29T06:05:56;4.30;;;2.07;;
24163;SDS011;12319;49.204;8.116;2023-12-29T06:08:21;3.73;;;2.00;;
24163;SDS011;12319;49.204;8.116;2023-12-29T06:10:47;4.07;;;2.00;;
24163;SDS011;12319;49.204;8.116;2023-12-29T06:13:12;4.00;;;2.10;;
24163;SDS011;12319;49.204;8.116;2023-12-29T06:15:38;4.10;;;2.10;;
24163;SDS011;12319;49.204;8.116;2023-12-29T06:18:04;5.67;;;2.30;;
24163;SDS011;12319;49.204;8.116;2023-12-29T06:20:29;4.60;;;2.00;;
24163;SDS011;12319;49.204;8.116;2023-12-29T06:22:55;5.07;;;1.93;;
24163;SDS011;12319;49.204;8.116;2023-12-29T06:25:21;4.18;;;1.90;;
24163;SDS011;12319;49.204;8.116;2023-12-29T06:27:46;3.97;;;2.10;;
24163;SDS011;12319;49.204;8.116;2023-12-29T06:30:13;3.65;;;1.80;;
24163;SDS011;12319;49.204;8.116;2023-12-29T06:32:39;3.55;;;1.75;;
24163;SDS011;12319;49.204;8.116;2023-12-29T06:35:05;3.72;;;1.85;;
24163;SDS011;12319;49.204;8.116;2023-12-29T06:37:31;4.25;;;2.10;;
24163;SDS011;12319;49.204;8.116;2023-12-29T06:39:57;4.05;;;1.80;;
24163;SDS011;12319;49.204;8.116;2023-12-29T06:42:22;3.90;;;1.80;;
24163;SDS011;12319;49.204;8.116;2023-12-29T06:44:48;3.90;;;1.77;;
24163;SDS011;12319;49.204;8.116;2023-12-29T06:47:13;4.17;;;1.90;;
24163;SDS011;12319;49.204;8.116;2023-12-29T06:49:39;5.33;;;2.40;;
24163;SDS011;12319;49.204;8.116;2023-12-29T06:52:05;4.15;;;1.90;;
24163;SDS011;12319;49.204;8.116;2023-12-29T06:54:31;3.55;;;1.90;;
24163;SDS011;12319;49.204;8.116;2023-12-29T06:56:56;3.38;;;1.95;;
24163;SDS011;12319;49.204;8.116;2023-12-29T06:59:22;3.90;;;2.00;;
24163;SDS011;12319;49.204;8.116;2023-12-29T07:01:48;4.07;;;1.80;;
24163;SDS011;12319;49.204;8.116;2023-12-29T07:04:13;3.10;;;1.70;;
24163;SDS011;12319;49.204;8.116;2023-12-29T07:06:40;3.35;;;1.70;;
24163;SDS011;12319;49.204;8.116;2023-12-29T07:09:06;3.35;;;1.80;;
24163;SDS011;12319;49.204;8.116;2023-12-29T07:11:33;3.33;;;1.70;;
24163;SDS011;12319;49.204;8.116;2023-12-29T07:13:59;3.45;;;1.92;;
24163;SDS011;12319;49.204;8.116;2023-12-29T07:16:25;3.60;;;1.80;;
24163;SDS011;12319;49.204;8.116;2023-12-29T07:18:50;3.88;;;1.75;;
24163;SDS011;12319;49.204;8.116;2023-12-29T07:21:17;4.73;;;2.10;;
24163;SDS011;12319;49.204;8.116;2023-12-29T07:23:43;4.13;;;1.90;;
24163;SDS011;12319;49.204;8.116;2023-12-29T07:26:08;3.80;;;2.10;;
24163;SDS011;12319;49.204;8.116;2023-12-29T07:28:34;4.03;;;2.05;;
24163;SDS011;12319;49.204;8.116;2023-12-29T07:31:00;4.47;;;1.60;;
24163;SDS011;12319;49.204;8.116;2023-12-29T07:33:26;4.43;;;2.10;;
24163;SDS011;12319;49.204;8.116;2023-12-29T07:35:52;3.97;;;1.93;;
24163;SDS011;12319;49.204;8.116;2023-12-29T07:38:17;3.50;;;1.70;;
24163;SDS011;12319;49.204;8.116;2023-12-29T07:40:43;4.68;;;1.90;;
24163;SDS011;12319;49.204;8.116;2023-12-29T07:43:08;3.60;;;1.90;;
24163;SDS011;12319;49.204;8.116;2023-12-29T07:45:34;5.15;;;2.00;;
24163;SDS011;12319;49.204;8.116;2023-12-29T07:48:01;3.80;;;1.90;;
24163;SDS011;12319;49.204;8.116;2023-12-29T07:50:27;3.83;;;1.90;;
24163;SDS011;12319;49.204;8.116;2023-12-29T07:52:53;4.67;;;1.90;;
24163;SDS011;12319;49.204;8.116;2023-12-29T07:55:18;5.07;;;1.90;;
24163;SDS011;12319;49.204;8.116;2023-12-29T07:57:44;4.15;;;2.08;;
24163;SDS011;12319;49.204;8.116;2023-12-29T08:00:11;6.20;;;2.15;;
24163;SDS011;12319;49.204;8.116;2023-12-29T08:02:40;3.80;;;1.97;;
24163;SDS011;12319;49.204;8.116;2023-12-29T08:05:06;3.83;;;1.80;;
24163;SDS011;12319;49.204;8.116;2023-12-29T08:07:35;3.53;;;1.83;;
24163;SDS011;12319;49.204;8.116;2023-12-29T08:10:02;2.60;;;1.40;;
24163;SDS011;12319;49.204;8.116;2023-12-29T08:12:29;3.55;;;1.83;;
24163;SDS011;12319;49.204;8.116;2023-12-29T08:14:55;4.65;;;2.10;;
24163;SDS011;12319;49.204;8.116;2023-12-29T08:17:21;3.67;;;1.77;;
24163;SDS011;12319;49.204;8.116;2023-12-29T08:19:47;2.63;;;1.58;;
24163;SDS011;12319;49.204;8.116;2023-12-29T08:22:12;3.13;;;1.63;;
24163;SDS011;12319;49.204;8.116;2023-12-29T08:24:40;3.00;;;1.60;;
24163;SDS011;12319;49.204;8.116;2023-12-29T08:27:08;3.50;;;1.70;;
24163;SDS011;12319;49.204;8.116;2023-12-29T08:29:34;2.57;;;1.30;;
24163;SDS011;12319;49.204;8.116;2023-12-29T08:31:59;3.37;;;1.67;;
24163;SDS011;12319;49.204;8.116;2023-12-29T08:34:26;4.40;;;1.67;;
24163;SDS011;12319;49.204;8.116;2023-12-29T08:36:52;3.10;;;1.70;;
24163;SDS011;12319;49.204;8.116;2023-12-29T08:39:18;2.55;;;1.42;;
24163;SDS011;12319;49.204;8.116;2023-12-29T08:41:44;3.25;;;1.77;;
24163;SDS011;12319;49.204;8.116;2023-12-29T08:44:09;3.07;;;1.63;;
24163;SDS011;12319;49.204;8.116;2023-12-29T08:46:35;2.70;;;1.50;;
24163;SDS011;12319;49.204;8.116;2023-12-29T08:49:00;2.63;;;1.52;;
24163;SDS011;12319;49.204;8.116;2023-12-29T08:51:26;3.73;;;1.60;;
24163;SDS011;12319;49.204;8.116;2023-12-29T08:53:52;2.95;;;1.60;;
24163;SDS011;12319;49.204;8.116;2023-12-29T08:56:17;2.63;;;1.50;;
24163;SDS011;12319;49.204;8.116;2023-12-29T08:58:43;4.87;;;1.80;;
24163;SDS011;12319;49.204;8.116;2023-12-29T09:01:08;3.10;;;1.63;;
24163;SDS011;12319;49.204;8.116;2023-12-29T09:03:34;2.85;;;1.50;;
24163;SDS011;12319;49.204;8.116;2023-12-29T09:05:59;3.13;;;1.60;;
24163;SDS011;12319;49.204;8.116;2023-12-29T09:08:26;5.15;;;1.73;;
24163;SDS011;12319;49.204;8.116;2023-12-29T09:10:52;3.22;;;1.70;;
24163;SDS011;12319;49.204;8.116;2023-12-29T09:13:17;3.25;;;1.65;;
24163;SDS011;12319;49.204;8.116;2023-12-29T09:15:47;2.85;;;1.52;;
24163;SDS011;12319;49.204;8.116;2023-12-29T09:18:13;3.43;;;1.80;;
24163;SDS011;12319;49.204;8.116;2023-12-29T09:20:38;4.15;;;2.00;;
24163;SDS011;12319;49.204;8.116;2023-12-29T09:23:04;4.22;;;1.80;;
24163;SDS011;12319;49.204;8.116;2023-12-29T09:25:30;3.17;;;1.65;;
24163;SDS011;12319;49.204;8.116;2023-12-29T09:27:55;4.45;;;2.20;;
24163;SDS011;12319;49.204;8.116;2023-12-29T09:30:21;3.17;;;1.53;;
24163;SDS011;12319;49.204;8.116;2023-12-29T09:32:47;4.65;;;1.85;;
24163;SDS011;12319;49.204;8.116;2023-12-29T09:35:12;3.70;;;1.70;;
24163;SDS011;12319;49.204;8.116;2023-12-29T09:37:38;2.87;;;1.60;;
24163;SDS011;12319;49.204;8.116;2023-12-29T09:40:03;3.22;;;1.70;;
24163;SDS011;12319;49.204;8.116;2023-12-29T09:42:30;3.30;;;1.58;;
24163;SDS011;12319;49.204;8.116;2023-12-29T09:44:56;3.05;;;1.60;;
24163;SDS011;12319;49.204;8.116;2023-12-29T09:47:23;2.53;;;1.40;;
24163;SDS011;12319;49.204;8.116;2023-12-29T09:49:49;3.83;;;1.30;;
24163;SDS011;12319;49.204;8.116;2023-12-29T09:52:18;3.63;;;1.57;;
24163;SDS011;12319;49.204;8.116;2023-12-29T09:54:46;3.58;;;1.45;;
24163;SDS011;12319;49.204;8.116;2023-12-29T09:57:16;2.95;;;1.60;;
24163;SDS011;12319;49.204;8.116;2023-12-29T09:59:43;4.93;;;1.70;;
24163;SDS011;12319;49.204;8.116;2023-12-29T10:02:12;5.50;;;1.70;;
24163;SDS011;12319;49.204;8.116;2023-12-29T10:04:40;3.83;;;1.60;;
24163;SDS011;12319;49.204;8.116;2023-12-29T10:07:06;4.05;;;1.73;;
24163;SDS011;12319;49.204;8.116;2023-12-29T10:09:36;3.00;;;1.50;;
24163;SDS011;12319;49.204;8.116;2023-12-29T10:12:02;3.17;;;1.47;;
24163;SDS011;12319;49.204;8.116;2023-12-29T10:14:56;2.63;;;1.40;;
24163;SDS011;12319;49.204;8.116;2023-12-29T10:17:43;2.38;;;1.30;;
24163;SDS011;12319;49.204;8.116;2023-12-29T10:20:16;3.00;;;1.33;;
24163;SDS011;12319;49.204;8.116;2023-12-29T10:23:02;4.15;;;1.60;;
24163;SDS011;12319;49.204;8.116;2023-12-29T10:25:41;3.13;;;1.40;;
24163;SDS011;12319;49.204;8.116;2023-12-29T10:28:07;3.15;;;1.45;;
24163;SDS011;12319;49.204;8.116;2023-12-29T10:30:34;3.40;;;1.50;;
24163;SDS011;12319;49.204;8.116;2023-12-29T10:33:00;2.38;;;1.30;;
24163;SDS011;12319;49.204;8.116;2023-12-29T10:35:29;3.25;;;1.60;;
24163;SDS011;12319;49.204;8.116;2023-12-29T10:37:54;3.95;;;1.50;;
24163;SDS011;12319;49.204;8.116;2023-12-29T10:40:32;3.03;;;1.45;;
24163;SDS011;12319;49.204;8.116;2023-12-29T10:42:58;3.23;;;1.60;;
24163;SDS011;12319;49.204;8.116;2023-12-29T10:45:26;3.25;;;1.60;;
24163;SDS011;12319;49.204;8.116;2023-12-29T10:47:52;3.22;;;1.60;;
24163;SDS011;12319;49.204;8.116;2023-12-29T10:50:18;3.30;;;1.60;;
24163;SDS011;12319;49.204;8.116;2023-12-29T10:52:44;4.93;;;1.70;;
24163;SDS011;12319;49.204;8.116;2023-12-29T10:55:11;2.97;;;1.42;;
24163;SDS011;12319;49.204;8.116;2023-12-29T10:57:37;3.33;;;1.60;;
24163;SDS011;12319;49.204;8.116;2023-12-29T11:00:04;2.90;;;1.60;;
24163;SDS011;12319;49.204;8.116;2023-12-29T11:02:32;2.95;;;1.60;;
24163;SDS011;12319;49.204;8.116;2023-12-29T11:05:02;3.03;;;1.47;;
24163;SDS011;12319;49.204;8.116;2023-12-29T11:07:32;3.03;;;1.45;;
24163;SDS011;12319;49.204;8.116;2023-12-29T11:10:06;3.20;;;1.60;;
24163;SDS011;12319;49.204;8.116;2023-12-29T11:12:33;2.35;;;1.30;;
24163;SDS011;12319;49.204;8.116;2023-12-29T11:15:06;3.28;;;1.50;;
24163;SDS011;12319;49.204;8.116;2023-12-29T11:17:33;2.50;;;1.43;;
24163;SDS011;12319;49.204;8.116;2023-12-29T11:20:00;3.20;;;1.60;;
24163;SDS011;12319;49.204;8.116;2023-12-29T11:22:28;2.70;;;1.52;;
24163;SDS011;12319;49.204;8.116;2023-12-29T11:24:55;3.35;;;1.48;;
24163;SDS011;12319;49.204;8.116;2023-12-29T11:27:23;2.45;;;1.40;;
24163;SDS011;12319;49.204;8.116;2023-12-29T11:29:51;2.77;;;1.50;;
24163;SDS011;12319;49.204;8.116;2023-12-29T11:32:19;2.83;;;1.60;;
24163;SDS011;12319;49.204;8.116;2023-12-29T11:34:54;3.33;;;1.63;;
24163;SDS011;12319;49.204;8.116;2023-12-29T11:37:28;2.63;;;1.45;;
24163;SDS011;12319;49.204;8.116;2023-12-29T11:40:17;2.50;;;1.48;;
24163;SDS011;12319;49.204;8.116;2023-12-29T11:43:14;3.20;;;1.50;;
24163;SDS011;12319;49.204;8.116;2023-12-29T11:45:41;2.85;;;1.50;;
24163;SDS011;12319;49.204;8.116;2023-12-29T11:48:07;4.80;;;1.73;;
24163;SDS011;12319;49.204;8.116;2023-12-29T11:50:33;3.93;;;1.97;;
24163;SDS011;12319;49.204;8.116;2023-12-29T11:53:04;3.28;;;1.60;;
24163;SDS011;12319;49.204;8.116;2023-12-29T11:55:34;3.53;;;1.60;;
24163;SDS011;12319;49.204;8.116;2023-12-29T11:58:23;3.05;;;1.50;;
24163;SDS011;12319;49.204;8.116;2023-12-29T12:00:50;3.10;;;1.50;;
24163;SDS011;12319;49.204;8.116;2023-12-29T12:03:23;2.95;;;1.55;;
24163;SDS011;12319;49.204;8.116;2023-12-29T12:05:53;3.50;;;1.73;;
24163;SDS011;12319;49.204;8.116;2023-12-29T12:10:57;3.70;;;1.70;;
24163;SDS011;12319;49.204;8.116;2023-12-29T12:13:44;4.22;;;2.00;;
24163;SDS011;12319;49.204;8.116;2023-12-29T12:16:56;3.20;;;1.73;;
24163;SDS011;12319;49.204;8.116;2023-12-29T12:19:16;3.67;;;1.53;;
24163;SDS011;12319;49.204;8.116;2023-12-29T12:21:45;2.40;;;1.42;;
24163;SDS011;12319;49.204;8.116;2023-12-29T12:24:12;3.65;;;1.70;;
24163;SDS011;12319;49.204;8.116;2023-12-29T12:26:38;2.83;;;1.63;;
24163;SDS011;12319;49.204;8.116;2023-12-29T12:29:05;3.47;;;1.50;;
24163;SDS011;12319;49.204;8.116;2023-12-29T12:31:32;2.90;;;1.60;;
24163;SDS011;12319;49.204;8.116;2023-12-29T12:33:58;3.73;;;1.70;;
24163;SDS011;12319;49.204;8.116;2023-12-29T12:36:25;4.57;;;1.77;;
24163;SDS011;12319;49.204;8.116;2023-12-29T12:38:52;4.25;;;2.00;;
24163;SDS011;12319;49.204;8.116;2023-12-29T12:41:18;3.92;;;1.80;;
24163;SDS011;12319;49.204;8.116;2023-12-29T12:43:47;3.27;;;1.53;;
24163;SDS011;12319;49.204;8.116;2023-12-29T12:46:22;3.10;;;1.60;;
24163;SDS011;12319;49.204;8.116;2023-12-29T12:48:51;4.30;;;1.90;;
24163;SDS011;12319;49.204;8.116;2023-12-29T12:51:21;2.92;;;1.60;;
24163;SDS011;12319;49.204;8.116;2023-12-29T12:53:47;4.25;;;1.52;;
24163;SDS011;12319;49.204;8.116;2023-12-29T12:56:14;4.70;;;1.90;;
24163;SDS011;12319;49.204;8.116;2023-12-29T12:58:41;4.13;;;1.80;;
24163;SDS011;12319;49.204;8.116;2023-12-29T13:01:07;2.90;;;1.70;;
24163;SDS011;12319;49.204;8.116;2023-12-29T13:03:33;2.70;;;1.40;;
24163;SDS011;12319;49.204;8.116;2023-12-29T13:05:59;3.65;;;1.88;;
24163;SDS011;12319;49.204;8.116;2023-12-29T13:08:26;3.70;;;1.70;;
24163;SDS011;12319;49.204;8.116;2023-12-29T13:10:52;4.55;;;1.70;;
24163;SDS011;12319;49.204;8.116;2023-12-29T13:13:18;4.47;;;1.95;;
24163;SDS011;12319;49.204;8.116;2023-12-29T13:18:16;3.55;;;1.60;;
24163;SDS011;12319;49.204;8.116;2023-12-29T13:20:48;3.08;;;1.50;;
24163;SDS011;12319;49.204;8.116;2023-12-29T13:23:15;4.53;;;1.75;;
24163;SDS011;12319;49.204;8.116;2023-12-29T13:25:44;3.13;;;1.50;;
24163;SDS011;12319;49.204;8.116;2023-12-29T13:28:11;3.63;;;1.63;;
24163;SDS011;12319;49.204;8.116;2023-12-29T13:30:38;2.83;;;1.57;;
24163;SDS011;12319;49.204;8.116;2023-12-29T13:35:54;2.45;;;1.30;;
24163;SDS011;12319;49.204;8.116;2023-12-29T13:38:28;2.63;;;1.52;;
24163;SDS011;12319;49.204;8.116;2023-12-29T13:41:19;2.53;;;1.50;;
24163;SDS011;12319;49.204;8.116;2023-12-29T13:43:47;3.33;;;1.50;;
24163;SDS011;12319;49.204;8.116;2023-12-29T13:46:14;3.03;;;1.48;;
24163;SDS011;12319;49.204;8.116;2023-12-29T13:48:42;3.10;;;1.70;;
24163;SDS011;12319;49.204;8.116;2023-12-29T13:51:10;4.45;;;1.80;;
24163;SDS011;12319;49.204;8.116;2023-12-29T13:53:35;3.47;;;1.80;;
24163;SDS011;12319;49.204;8.116;2023-12-29T13:56:10;3.40;;;1.80;;
24163;SDS011;12319;49.204;8.116;2023-12-29T13:58:36;3.38;;;1.67;;
24163;SDS011;12319;49.204;8.116;2023-12-29T14:01:03;4.53;;;2.30;;
24163;SDS011;12319;49.204;8.116;2023-12-29T14:03:37;3.17;;;1.65;;
24163;SDS011;12319;49.204;8.116;2023-12-29T14:06:08;3.37;;;1.80;;
24163;SDS011;12319;49.204;8.116;2023-12-29T14:08:39;4.05;;;1.90;;
24163;SDS011;12319;49.204;8.116;2023-12-29T14:11:08;3.72;;;1.90;;
24163;SDS011;12319;49.204;8.116;2023-12-29T14:13:35;2.80;;;1.50;;
24163;SDS011;12319;49.204;8.116;2023-12-29T14:16:05;4.00;;;1.45;;
24163;SDS011;12319;49.204;8.116;2023-12-29T14:21:22;3.17;;;1.52;;
24163;SDS011;12319;49.204;8.116;2023-12-29T14:26:41;2.77;;;1.50;;
24163;SDS011;12319;49.204;8.116;2023-12-29T14:29:19;3.80;;;1.50;;
24163;SDS011;12319;49.204;8.116;2023-12-29T14:31:46;2.50;;;1.40;;
24163;SDS011;12319;49.204;8.116;2023-12-29T14:34:12;3.38;;;1.70;;
24163;SDS011;12319;49.204;8.116;2023-12-29T14:36:39;2.97;;;1.60;;
24163;SDS011;12319;49.204;8.116;2023-12-29T14:39:05;2.83;;;1.50;;
24163;SDS011;12319;49.204;8.116;2023-12-29T14:41:32;3.42;;;1.60;;
24163;SDS011;12319;49.204;8.116;2023-12-29T14:43:58;2.92;;;1.60;;
24163;SDS011;12319;49.204;8.116;2023-12-29T14:46:24;3.65;;;1.88;;
24163;SDS011;12319;49.204;8.116;2023-12-29T14:48:50;4.53;;;1.90;;
24163;SDS011;12319;49.204;8.116;2023-12-29T14:51:20;5.28;;;1.80;;
24163;SDS011;12319;49.204;8.116;2023-12-29T14:53:47;5.30;;;1.90;;
24163;SDS011;12319;49.204;8.116;2023-12-29T14:56:14;3.60;;;1.70;;
24163;SDS011;12319;49.204;8.116;2023-12-29T14:58:40;3.30;;;1.63;;
24163;SDS011;12319;49.204;8.116;2023-12-29T15:01:06;3.97;;;1.80;;
24163;SDS011;12319;49.204;8.116;2023-12-29T15:03:33;3.50;;;1.60;;
24163;SDS011;12319;49.204;8.116;2023-12-29T15:05:59;2.78;;;1.50;;